Time;durP1;ratioP1;P1;durP2;ratioP2;P2;SDS_P1;SDS_P2;PMS_P1;PMS_P2;Temp;Humidity;BMP_temperature;BMP_pressure;BME280_temperature;BME280_humidity;BME280_pressure;Samples;Min_cycle;Max_cycle;Signal;HPM_P1;HPM_P2
2022/09/13 00:01:22;;;;;;;24.00;16.10;;;10.30;1.00;;;10.25;100.00;98818.13;5066756;27;118560;-71
2022/09/13 00:03:51;;;;;;;25.85;15.65;;;10.30;1.00;;;10.23;100.00;98814.13;5082204;27;119453;-72
2022/09/13 00:06:20;;;;;;;26.25;15.77;;;10.30;1.00;;;10.21;100.00;98808.25;5066142;27;130063;-72
2022/09/13 00:08:52;;;;;;;21.67;14.93;;;10.30;1.00;;;10.24;100.00;98810.31;5071427;27;130266;-72
2022/09/13 00:11:23;;;;;;;21.45;15.65;;;10.30;1.00;;;10.31;100.00;98802.44;5080344;27;122020;-71
2022/09/13 00:13:53;;;;;;;22.23;15.00;;;10.30;1.00;;;10.25;100.00;98804.56;5081442;27;122209;-71
2022/09/13 00:16:25;;;;;;;29.20;14.65;;;10.30;1.00;;;10.25;100.00;98801.03;5065967;27;130436;-72
2022/09/13 00:18:55;;;;;;;22.77;15.68;;;10.30;1.00;;;10.29;100.00;98804.69;5081302;27;129736;-71
2022/09/13 00:21:25;;;;;;;21.50;15.40;;;10.20;1.00;;;10.34;100.00;98809.19;5081573;27;119559;-72
2022/09/13 00:23:55;;;;;;;20.25;15.98;;;10.30;1.00;;;10.43;100.00;98805.28;5081644;27;119457;-71
2022/09/13 00:26:26;;;;;;;22.02;15.00;;;10.30;1.00;;;10.48;100.00;98819.78;5081002;27;129955;-72
2022/09/13 00:28:57;;;;;;;21.05;15.35;;;10.30;1.00;;;10.42;100.00;98820.00;5081422;27;129666;-71
2022/09/13 00:31:28;;;;;;;21.40;15.25;;;10.30;1.00;;;10.41;100.00;98821.09;5081416;27;119918;-72
2022/09/13 00:33:58;;;;;;;22.00;15.15;;;10.30;1.00;;;10.34;100.00;98815.38;5081302;27;120284;-71
2022/09/13 00:36:27;;;;;;;23.15;15.23;;;10.30;1.00;;;10.37;100.00;98814.72;5079853;27;129916;-72
2022/09/13 00:38:57;;;;;;;22.30;15.40;;;10.30;1.00;;;10.42;100.00;98821.88;5080582;27;130157;-73
2022/09/13 00:41:25;;;;;;;20.95;15.20;;;10.30;1.00;;;10.40;100.00;98822.22;5081293;27;119516;-72
2022/09/13 00:43:56;;;;;;;24.33;15.68;;;10.30;1.00;;;10.36;100.00;98824.00;5081160;27;119391;-71
2022/09/13 00:46:33;;;;;;;29.35;16.15;;;10.30;1.00;;;10.39;100.00;98817.94;5065670;27;129659;-72
2022/09/13 00:49:10;;;;;;;24.25;15.45;;;10.30;1.00;;;10.48;100.00;98830.66;5080071;27;129592;-76
2022/09/13 00:51:40;;;;;;;24.65;15.77;;;10.30;1.00;;;10.42;100.00;98822.69;5048942;27;120001;-71
2022/09/13 00:54:11;;;;;;;20.95;15.52;;;10.30;1.00;;;10.38;100.00;98826.41;5081628;27;119417;-72
2022/09/13 00:56:43;;;;;;;20.33;15.63;;;10.30;1.00;;;10.29;100.00;98826.41;5080913;27;129963;-71
2022/09/13 00:59:19;;;;;;;23.92;15.25;;;10.30;1.00;;;10.23;100.00;98822.28;5080450;27;129526;-70
2022/09/13 01:01:53;;;;;;;25.47;15.47;;;10.30;1.00;;;10.29;100.00;98818.25;5079644;27;122200;-71
2022/09/13 01:04:26;;;;;;;20.95;14.82;;;10.30;1.00;;;10.27;100.00;98823.22;5080807;27;121709;-70
2022/09/13 01:07:00;;;;;;;21.20;14.40;;;10.30;1.00;;;10.36;100.00;98818.59;5080506;27;129986;-73
2022/09/13 01:09:32;;;;;;;22.80;14.30;;;10.30;1.00;;;10.36;100.00;98818.59;5080592;27;130044;-73
2022/09/13 01:12:09;;;;;;;20.00;15.18;;;10.30;1.00;;;10.32;100.00;98823.03;5080865;27;119256;-73
2022/09/13 01:14:39;;;;;;;20.30;14.90;;;10.30;1.00;;;10.34;100.00;98826.22;5081215;27;119214;-74
2022/09/13 01:17:08;;;;;;;19.17;14.38;;;10.30;1.00;;;10.35;100.00;98818.91;5080656;27;131079;-71
2022/09/13 01:19:38;;;;;;;22.10;14.20;;;10.30;1.00;;;10.36;100.00;98821.28;5080788;27;129395;-72
2022/09/13 01:22:57;;;;;;;16.85;13.25;;;10.30;1.00;;;10.32;100.00;98822.25;5080782;27;119897;-71
2022/09/13 01:26:29;;;;;;;22.13;14.68;;;10.30;1.00;;;10.25;100.00;98818.13;5065470;27;118408;-71
2022/09/13 01:29:36;;;;;;;22.73;14.90;;;10.30;1.00;;;10.31;100.00;98818.72;5079081;27;130259;-71
2022/09/13 01:32:18;;;;;;;20.63;14.70;;;10.30;1.00;;;10.28;100.00;98815.88;5080249;27;130940;-70
2022/09/13 01:35:01;;;;;;;21.83;15.35;;;10.30;1.00;;;10.27;100.00;98820.50;5080587;27;119814;-71
2022/09/13 01:37:50;;;;;;;23.20;14.98;;;10.30;1.00;;;10.28;100.00;98822.06;5080602;27;120039;-72
2022/09/13 01:40:35;;;;;;;21.40;14.73;;;10.30;1.00;;;10.30;100.00;98814.44;5080043;27;130546;-71
2022/09/13 01:43:27;;;;;;;23.55;16.02;;;10.30;1.00;;;10.35;100.00;98816.97;5080056;27;129444;-71
2022/09/13 01:46:05;;;;;;;21.77;14.50;;;10.30;1.00;;;10.37;100.00;98819.38;5082425;27;119710;-71
2022/09/13 01:48:54;;;;;;;23.75;15.18;;;10.30;1.00;;;10.32;100.00;98812.19;5081030;27;119431;-72
2022/09/13 01:51:32;;;;;;;23.35;15.18;;;10.30;1.00;;;10.37;100.00;98817.44;5061872;27;129933;-71
2022/09/13 01:54:15;;;;;;;23.08;14.68;;;10.30;1.00;;;10.32;100.00;98809.47;5061552;27;129262;-73
2022/09/13 01:56:54;;;;;;;22.95;15.02;;;10.30;1.00;;;10.23;100.00;98804.06;5079250;27;122349;-73
2022/09/13 01:59:34;;;;;;;23.10;14.52;;;10.30;1.00;;;10.25;100.00;98806.47;5062070;27;122330;-71
2022/09/13 02:02:08;;;;;;;21.85;15.18;;;10.30;1.00;;;10.27;100.00;98804.25;5083386;27;130361;-72
2022/09/13 02:04:43;;;;;;;21.70;15.07;;;10.30;1.00;;;10.27;100.00;98804.25;5083599;27;129229;-70
2022/09/13 02:07:35;;;;;;;21.65;15.98;;;10.30;1.00;;;10.34;100.00;98807.25;5067804;27;119644;-71
2022/09/13 02:10:10;;;;;;;21.67;14.43;;;10.30;1.00;;;10.38;100.00;98794.63;5083708;27;119883;-72
2022/09/13 02:12:43;;;;;;;20.67;14.60;;;10.30;1.00;;;10.42;100.00;98808.31;5068286;27;129635;-73
2022/09/13 02:15:18;;;;;;;23.40;14.77;;;10.30;1.00;;;10.50;100.00;98801.25;5083576;27;129722;-72
2022/09/13 02:17:55;;;;;;;18.95;14.80;;;10.40;1.00;;;10.51;100.00;98802.88;5083655;27;119342;-71
2022/09/13 02:20:30;;;;;;;18.80;13.38;;;10.30;1.00;;;10.48;100.00;98803.53;5083480;27;119535;-72
2022/09/13 02:23:04;;;;;;;19.52;14.73;;;10.30;1.00;;;10.52;100.00;98804.47;5066798;27;128719;-72
2022/09/13 02:25:36;;;;;;;18.83;14.43;;;10.30;1.00;;;10.56;100.00;98797.25;5082946;27;129402;-72
2022/09/13 02:28:09;;;;;;;18.42;14.30;;;10.30;1.00;;;10.57;100.00;98796.13;5083649;27;119631;-72
2022/09/13 02:30:44;;;;;;;20.05;14.30;;;10.40;1.00;;;10.59;100.00;98794.66;5083358;27;119645;-71
2022/09/13 02:33:16;;;;;;;18.65;14.57;;;10.40;1.00;;;10.65;100.00;98797.97;5082989;27;130762;-71
2022/09/13 02:35:53;;;;;;;22.05;14.55;;;10.40;1.00;;;10.67;100.00;98800.38;5082621;27;129568;-72
2022/09/13 02:38:29;;;;;;;19.10;13.65;;;10.40;1.00;;;10.65;100.00;98795.28;5068113;27;118480;-71
2022/09/13 02:41:01;;;;;;;18.20;13.98;;;10.40;1.00;;;10.63;100.00;98792.09;5083217;27;120162;-71
2022/09/13 02:43:36;;;;;;;17.60;14.23;;;10.40;1.00;;;10.62;100.00;98798.66;5082656;27;129879;-72
2022/09/13 02:46:29;;;;;;;21.13;14.60;;;10.40;1.00;;;10.61;100.00;98792.44;5067735;27;130563;-71
2022/09/13 02:49:12;;;;;;;19.50;12.80;;;10.40;1.00;;;10.67;100.00;98790.31;5081902;27;122196;-72
2022/09/13 02:51:53;;;;;;;20.40;14.63;;;10.40;1.00;;;10.64;100.00;98784.75;5082527;27;121746;-75
2022/09/13 02:54:35;;;;;;;20.58;14.75;;;10.40;1.00;;;10.60;100.00;98784.63;5067935;27;130408;-73
2022/09/13 02:57:13;;;;;;;21.80;14.93;;;10.40;1.00;;;10.51;100.00;98786.59;5062097;27;130062;-72
2022/09/13 02:59:47;;;;;;;20.17;15.32;;;10.40;1.00;;;10.58;100.00;98778.72;5047121;27;119378;-72
2022/09/13 03:02:20;;;;;;;19.83;14.75;;;10.40;1.00;;;10.54;100.00;98775.09;5061671;27;119351;-72
2022/09/13 03:04:50;;;;;;;20.02;14.38;;;10.30;1.00;;;10.50;100.00;98774.13;5061795;27;130658;-74
2022/09/13 03:07:20;;;;;;;22.48;16.25;;;10.30;1.00;;;10.46;100.00;98781.38;5062295;27;130344;-71
2022/09/13 03:09:55;;;;;;;20.08;13.88;;;10.30;1.00;;;10.43;100.00;98789.00;5062298;27;119653;-72
2022/09/13 03:13:03;;;;;;;19.73;14.18;;;10.30;1.00;;;10.36;100.00;98780.63;5061156;27;119891;-72
2022/09/13 03:15:59;;;;;;;22.13;15.80;;;10.40;1.00;;;10.36;100.00;98785.22;5045322;27;129027;-71
2022/09/13 03:18:49;;;;;;;20.73;15.43;;;10.40;1.00;;;10.39;100.00;98790.81;5064543;27;130507;-73
2022/09/13 03:21:41;;;;;;;20.42;14.18;;;10.30;1.00;;;10.42;100.00;98794.75;5080591;27;119763;-72
2022/09/13 03:24:20;;;;;;;21.95;15.02;;;10.30;1.00;;;10.51;100.00;98792.00;5082410;27;119568;-71
2022/09/13 03:27:07;;;;;;;20.27;14.73;;;10.40;1.00;;;10.55;100.00;98787.50;5081689;27;130194;-73
2022/09/13 03:29:40;;;;;;;;;;;10.40;1.00;;;10.50;100.00;98801.25;5067265;27;130021;-74
2022/09/13 03:32:24;;;;;;;21.92;14.95;;;10.40;1.00;;;10.47;100.00;98791.06;5081935;27;120630;-72
2022/09/13 03:35:02;;;;;;;20.02;14.60;;;10.40;1.00;;;10.41;100.00;98793.97;5082495;27;119695;-71
2022/09/13 03:37:39;;;;;;;21.83;15.23;;;10.40;1.00;;;10.32;100.00;98797.84;5081440;27;129848;-70
2022/09/13 03:40:16;;;;;;;23.67;15.35;;;10.40;1.00;;;10.35;100.00;98805.34;5084894;27;129297;-72
2022/09/13 03:42:51;;;;;;;22.23;15.70;;;10.40;1.00;;;10.39;100.00;98796.22;5064952;27;122595;-72
2022/09/13 03:45:25;;;;;;;21.35;15.38;;;10.40;1.00;;;10.42;100.00;98811.84;5080847;27;122025;-71
2022/09/13 03:47:55;;;;;;;22.88;16.17;;;10.40;1.00;;;10.45;100.00;98804.19;5066043;27;129452;-71
2022/09/13 03:50:26;;;;;;;24.80;16.33;;;10.40;1.00;;;10.37;100.00;98803.09;5081670;27;128912;-72
2022/09/13 03:53:00;;;;;;;25.30;16.00;;;10.30;1.00;;;10.42;100.00;98806.44;5081425;27;120237;-68
2022/09/13 03:55:31;;;;;;;23.75;15.50;;;10.40;1.00;;;10.40;100.00;98803.22;5066509;27;118863;-70
2022/09/13 03:58:00;;;;;;;21.85;15.85;;;10.30;1.00;;;10.49;100.00;98805.13;5066347;27;128695;-74
2022/09/13 04:00:29;;;;;;;23.08;15.45;;;10.40;1.00;;;10.43;100.00;98802.56;5081627;27;129129;-70
2022/09/13 04:02:58;;;;;;;22.95;15.90;;;10.40;1.00;;;10.47;100.00;98802.72;5081772;27;120292;-72
2022/09/13 04:05:27;;;;;;;23.15;15.98;;;10.40;1.00;;;10.38;100.00;98794.63;5081801;27;120401;-71
2022/09/13 04:07:55;;;;;;;26.85;17.00;;;10.40;1.00;;;10.35;100.00;98795.28;5080097;27;129930;-69
2022/09/13 04:10:24;;;;;;;22.10;16.13;;;10.40;1.00;;;10.34;100.00;98798.31;5066448;27;128333;-71
2022/09/13 04:12:54;;;;;;;24.23;16.48;;;10.40;1.00;;;10.41;100.00;98793.97;5081407;27;119959;-70
2022/09/13 04:15:23;;;;;;;22.85;16.92;;;10.40;1.00;;;10.51;100.00;98792.00;5081613;27;119501;-69
2022/09/13 04:17:51;;;;;;;26.23;16.83;;;10.40;1.00;;;10.46;100.00;98794.94;5080930;27;130025;-73
2022/09/13 04:20:20;;;;;;;21.52;15.65;;;10.40;1.00;;;10.50;100.00;98785.00;5081264;27;129469;-69
2022/09/13 04:22:53;;;;;;;26.38;15.82;;;10.40;1.00;;;10.50;100.00;98787.69;5080783;27;119908;-69
2022/09/13 04:25:22;;;;;;;26.17;16.25;;;10.40;1.00;;;10.53;100.00;98790.56;5066372;27;118674;-70
2022/09/13 04:27:58;;;;;;;23.95;17.58;;;10.40;1.00;;;10.53;100.00;98789.75;5081261;27;130241;-70
2022/09/13 04:30:28;;;;;;;26.33;16.67;;;10.40;1.00;;;10.51;100.00;98778.44;5081111;27;129271;-70
2022/09/13 04:32:58;;;;;;;21.95;15.13;;;10.50;1.00;;;10.59;100.00;98777.59;5080028;27;122163;-69
2022/09/13 04:35:27;;;;;;;24.85;17.13;;;10.50;1.00;;;10.67;100.00;98795.72;5062589;27;122279;-72
2022/09/13 04:37:57;;;;;;;24.58;15.77;;;10.50;1.00;;;10.69;100.00;98779.94;5080686;27;130488;-72
2022/09/13 04:40:25;;;;;;;22.30;15.48;;;10.50;1.00;;;10.70;100.00;98788.84;5080943;27;129471;-71
2022/09/13 04:42:55;;;;;;;22.52;16.30;;;10.50;1.00;;;10.73;100.00;98789.00;5081097;27;119509;-71
2022/09/13 04:45:24;;;;;;;24.88;15.55;;;10.60;1.00;;;10.77;100.00;98795.34;5081760;27;119707;-71
2022/09/13 04:47:53;;;;;;;21.58;15.52;;;10.60;1.00;;;10.71;100.00;98796.66;5064208;27;128941;-71
2022/09/13 04:50:22;;;;;;;21.45;15.75;;;10.50;1.00;;;10.62;100.00;98793.22;5079486;27;129493;-72
2022/09/13 04:52:54;;;;;;;27.30;16.90;;;10.50;1.00;;;10.57;100.00;98796.13;5079320;27;120046;-71
2022/09/13 04:55:24;;;;;;;22.35;15.70;;;10.50;1.00;;;10.58;100.00;98803.13;5073873;27;121203;-70
2022/09/13 04:57:56;;;;;;;22.80;15.65;;;10.50;1.00;;;10.63;100.00;98794.81;5077881;27;129908;-70
2022/09/13 05:00:25;;;;;;;21.75;14.77;;;10.60;1.00;;;10.63;100.00;98794.81;5041896;27;128213;-71
2022/09/13 05:02:56;;;;;;;22.58;15.35;;;10.50;1.00;;;10.65;100.00;98797.97;5079411;27;119471;-72
2022/09/13 05:05:27;;;;;;;22.60;15.57;;;10.60;1.00;;;10.66;100.00;98790.63;5076874;27;121038;-71
2022/09/13 05:07:56;;;;;;;20.10;14.65;;;10.50;1.00;;;10.76;100.00;98793.75;5078870;27;130146;-72
2022/09/13 05:10:24;;;;;;;22.58;14.38;;;10.60;1.00;;;10.79;100.00;98793.09;5078845;27;129872;-69
2022/09/13 05:12:53;;;;;;;19.77;14.27;;;10.60;1.00;;;10.88;100.00;98789.53;5079123;27;119776;-71
2022/09/13 05:15:23;;;;;;;20.98;13.70;;;10.70;1.00;;;10.93;100.00;98789.34;5079581;27;119536;-70
2022/09/13 05:17:52;;;;;;;19.60;13.90;;;10.70;1.00;;;10.97;100.00;98799.22;5054695;27;129299;-71
2022/09/13 05:20:21;;;;;;;19.88;14.73;;;10.80;1.00;;;10.99;100.00;98798.09;5041640;27;129551;-71
2022/09/13 05:22:49;;;;;;;20.40;15.10;;;10.80;1.00;;;11.10;100.00;98791.91;5058872;27;123446;-70
2022/09/13 05:25:17;;;;;;;19.30;13.93;;;10.90;1.00;;;11.30;100.00;98789.53;5059631;27;122211;-71
2022/09/13 05:27:46;;;;;;;19.70;13.45;;;11.00;1.00;;;11.31;100.00;98796.53;5027482;27;128689;-70
2022/09/13 05:30:14;;;;;;;18.52;13.95;;;10.90;99.90;;;11.27;100.00;98782.03;5059389;27;129520;-71
2022/09/13 05:32:44;;;;;;;19.70;13.63;;;10.90;99.90;;;11.29;100.00;98793.38;5044686;27;118318;-69
2022/09/13 05:35:13;;;;;;;19.45;14.40;;;10.90;99.90;;;11.30;100.00;98786.81;5061412;27;120134;-71
2022/09/13 05:37:42;;;;;;;22.85;14.52;;;10.90;99.90;;;11.27;100.00;98784.75;5063090;27;129969;-71
2022/09/13 05:40:11;;;;;;;21.10;12.65;;;10.90;99.90;;;11.29;100.00;98783.28;5063493;27;129420;-71
2022/09/13 05:42:39;;;;;;;22.33;14.07;;;10.90;99.90;;;11.33;100.00;98788.84;5063351;27;119560;-71
2022/09/13 05:45:09;;;;;;;19.55;13.70;;;11.00;99.90;;;11.40;100.00;98778.22;5064374;27;119555;-72
2022/09/13 05:47:38;;;;;;;19.95;13.20;;;11.00;99.90;;;11.39;100.00;98779.38;5063741;27;128850;-70
2022/09/13 05:50:13;;;;;;;18.40;13.38;;;11.10;99.90;;;11.48;100.00;98782.81;5062914;27;129413;-71
2022/09/13 05:52:41;;;;;;;19.08;12.88;;;11.10;99.90;;;11.53;100.00;98784.53;5062950;27;119478;-71
2022/09/13 05:55:10;;;;;;;18.05;12.65;;;11.10;99.90;;;11.55;100.00;98789.63;5080084;27;120755;-71
2022/09/13 05:57:39;;;;;;;19.17;12.52;;;11.10;99.90;;;11.45;100.00;98788.91;5082384;27;129942;-71
2022/09/13 06:00:09;;;;;;;19.50;12.60;;;11.10;99.90;;;11.50;100.00;98785.97;5081887;27;130130;-72
2022/09/13 06:02:42;;;;;;;17.65;12.30;;;11.10;99.90;;;11.56;100.00;98791.19;5082196;27;119607;-71
2022/09/13 06:05:12;;;;;;;20.05;12.10;;;11.10;99.90;;;11.56;100.00;98785.75;5082454;27;120010;-72
2022/09/13 06:07:41;;;;;;;19.92;11.80;;;11.10;99.90;;;11.57;100.00;98799.00;5083872;27;129952;-71
2022/09/13 06:10:10;;;;;;;18.90;13.18;;;11.10;99.90;;;11.54;100.00;98793.44;5081665;27;129676;-69
2022/09/13 06:12:39;;;;;;;17.13;12.77;;;11.10;99.90;;;11.60;100.00;98800.28;5080885;27;121752;-70
2022/09/13 06:15:10;;;;;;;18.70;13.32;;;11.00;99.90;;;11.36;100.00;98800.97;5082164;27;121968;-71
2022/09/13 06:17:38;;;;;;;22.42;14.20;;;10.90;99.90;;;11.23;100.00;98803.63;5066435;27;129880;-71
2022/09/13 06:20:09;;;;;;;20.45;14.18;;;10.90;99.90;;;11.18;100.00;98797.63;5066212;27;129095;-71
2022/09/13 06:22:39;;;;;;;19.40;14.52;;;10.80;99.90;;;11.12;100.00;98800.50;5081747;27;119906;-71
2022/09/13 06:25:09;;;;;;;21.75;14.43;;;10.80;99.90;;;11.15;100.00;98804.50;5081911;27;119602;-72
2022/09/13 06:27:38;;;;;;;21.98;14.65;;;10.80;99.90;;;11.20;100.00;98795.34;5081060;27;129828;-72
2022/09/13 06:30:11;;;;;;;24.77;15.70;;;10.90;1.00;;;11.25;100.00;98798.66;5082020;27;129858;-70
2022/09/13 06:32:40;;;;;;;25.63;15.90;;;10.90;99.90;;;11.30;100.00;98795.75;5082070;27;120330;-72
2022/09/13 06:35:10;;;;;;;23.58;15.10;;;10.90;99.90;;;11.39;100.00;98798.41;5082256;27;119742;-71
2022/09/13 06:37:40;;;;;;;21.85;14.60;;;10.90;99.90;;;11.13;100.00;98806.75;5077803;27;129773;-71
2022/09/13 06:40:11;;;;;;;23.40;14.18;;;10.90;99.90;;;11.19;100.00;98804.63;5081175;27;129881;-71
2022/09/13 06:42:39;;;;;;;23.20;14.40;;;10.90;1.00;;;11.34;100.00;98801.28;5079340;27;119627;-70
2022/09/13 06:45:09;;;;;;;21.15;15.02;;;11.00;1.00;;;11.39;100.00;98797.56;5082553;27;119722;-73
2022/09/13 06:47:38;;;;;;;22.92;14.85;;;11.00;99.90;;;11.48;100.00;98806.44;5080206;27;130146;-69
2022/09/13 06:50:08;;;;;;;20.60;13.63;;;11.10;99.90;;;11.51;100.00;98798.44;5081083;27;129905;-69
2022/09/13 06:52:37;;;;;;;20.33;13.85;;;11.10;99.90;;;11.55;100.00;98803.22;5079133;27;119736;-72
2022/09/13 06:55:08;;;;;;;17.42;13.07;;;11.10;99.90;;;11.63;100.00;98800.38;5083534;27;119787;-71
2022/09/13 06:57:37;;;;;;;17.83;13.20;;;11.20;99.90;;;11.78;100.00;98804.41;5082388;27;129793;-71
2022/09/13 07:00:07;;;;;;;17.67;12.48;;;11.30;99.90;;;11.88;100.00;98803.94;5067132;27;128888;-72
2022/09/13 07:02:35;;;;;;;17.40;13.55;;;11.30;99.90;;;11.88;100.00;98806.66;5081533;27;123580;-72
2022/09/13 07:05:04;;;;;;;15.65;11.68;;;11.30;99.90;;;11.89;100.00;98802.03;5082428;27;121520;-72
2022/09/13 07:07:33;;;;;;;18.90;11.95;;;11.30;99.90;;;11.90;100.00;98808.25;5081988;27;129944;-72
2022/09/13 07:10:01;;;;;;;21.17;12.02;;;11.30;99.90;;;11.93;100.00;98804.91;5066687;27;129580;-72
2022/09/13 07:12:31;;;;;;;17.67;12.65;;;11.40;99.90;;;11.87;100.00;98799.66;5082699;27;119478;-72
2022/09/13 07:14:59;;;;;;;17.27;11.73;;;11.30;99.90;;;11.83;100.00;98796.03;5067195;27;118762;-71
2022/09/13 07:17:28;;;;;;;19.77;12.60;;;11.30;99.90;;;11.93;100.00;98799.47;5081908;27;130112;-72
2022/09/13 07:19:57;;;;;;;16.83;11.73;;;11.40;99.90;;;11.95;100.00;98789.84;5067083;27;128662;-70
2022/09/13 07:22:26;;;;;;;16.92;12.25;;;11.40;99.90;;;11.88;100.00;98795.00;5081704;27;119637;-70
2022/09/13 07:24:56;;;;;;;21.92;13.38;;;11.30;99.90;;;11.85;100.00;98796.47;5081171;27;119418;-71
2022/09/13 07:27:24;;;;;;;16.17;11.27;;;11.40;99.90;;;11.85;100.00;98803.84;5063756;27;129243;-71
2022/09/13 07:29:54;;;;;;;19.52;11.95;;;11.40;99.90;;;11.98;100.00;98796.53;5080446;27;130130;-71
2022/09/13 07:32:23;;;;;;;19.23;11.43;;;11.50;99.90;;;12.04;100.00;98801.44;5081847;27;119458;-71
2022/09/13 07:34:51;;;;;;;18.45;12.30;;;11.50;99.90;;;12.17;100.00;98802.22;5049493;27;119124;-71
2022/09/13 07:37:20;;;;;;;16.80;11.82;;;11.60;99.90;;;12.24;100.00;98793.50;5081745;27;129825;-71
2022/09/13 07:39:49;;;;;;;18.25;11.77;;;11.60;99.90;;;12.31;100.00;98792.91;5081849;27;129584;-71
2022/09/13 07:42:18;;;;;;;17.42;12.40;;;11.60;99.90;;;12.35;100.00;98799.28;5081961;27;119993;-70
2022/09/13 07:44:46;;;;;;;18.50;12.52;;;11.60;99.90;;;12.41;100.00;98790.53;5066623;27;119255;-73
2022/09/13 07:47:17;;;;;;;17.02;11.88;;;11.70;99.90;;;12.50;100.00;98795.09;5065958;27;130962;-71
2022/09/13 07:49:45;;;;;;;18.38;11.65;;;11.80;99.90;;;12.45;100.00;98798.84;5066433;27;129668;-71
2022/09/13 07:52:14;;;;;;;17.52;11.07;;;11.80;99.90;;;12.42;100.00;98791.34;5080740;27;122118;-71
2022/09/13 07:54:42;;;;;;;15.32;10.88;;;11.80;99.90;;;12.41;100.00;98787.81;5082018;27;122002;-71
2022/09/13 07:57:10;;;;;;;16.60;11.40;;;11.80;99.90;;;12.39;100.00;98792.81;5065013;27;129564;-71
2022/09/13 07:59:39;;;;;;;17.42;11.15;;;11.70;99.90;;;12.41;100.00;98787.03;5081554;27;130524;-71
2022/09/13 08:02:09;;;;;;;16.42;11.63;;;11.80;99.90;;;12.34;100.00;98775.91;5066533;27;119168;-70
2022/09/13 08:04:39;;;;;;;17.38;12.80;;;11.80;99.90;;;12.37;100.00;98775.22;5081803;27;119603;-71
2022/09/13 08:07:07;;;;;;;18.38;12.57;;;11.80;99.90;;;12.57;100.00;98784.41;5081396;27;129946;-70
2022/09/13 08:09:36;;;;;;;18.55;13.52;;;11.90;99.90;;;12.66;100.00;98776.91;5081589;27;129590;-71
2022/09/13 08:12:05;;;;;;;19.98;13.48;;;12.00;99.90;;;12.88;100.00;98772.88;5081559;27;119695;-72
2022/09/13 08:14:34;;;;;;;18.33;13.07;;;12.10;99.90;;;13.30;100.00;98766.28;5081547;27;119232;-72
2022/09/13 08:17:02;;;;;;;20.20;13.15;;;12.40;99.90;;;13.65;100.00;98771.94;5047435;27;129574;-72
2022/09/13 08:19:30;;;;;;;18.75;12.13;;;12.70;99.90;;;13.97;100.00;98761.03;5081333;27;129619;-72
2022/09/13 08:22:01;;;;;;;16.73;11.82;;;12.80;99.90;;;14.02;100.00;98776.34;5081183;27;120023;-72
2022/09/13 08:24:29;;;;;;;17.58;12.45;;;12.90;99.90;;;14.08;100.00;98765.97;5081363;27;120611;-72
2022/09/13 08:26:58;;;;;;;18.35;11.85;;;12.90;99.90;;;14.16;100.00;98767.72;5062381;27;130551;-71
2022/09/13 08:29:27;;;;;;;17.05;12.52;;;13.00;99.90;;;14.20;100.00;98768.63;5080757;27;129763;-72
2022/09/13 08:31:55;;;;;;;17.95;13.13;;;13.00;99.90;;;14.09;100.00;98767.56;5081358;27;119764;-72
2022/09/13 08:34:24;;;;;;;16.90;12.27;;;13.00;99.90;;;14.28;100.00;98764.91;5081688;27;120375;-70
2022/09/13 08:36:52;;;;;;;17.52;11.48;;;13.10;99.90;;;14.52;100.00;98757.63;5080835;27;130597;-71
2022/09/13 08:39:23;;;;;;;15.20;11.35;;;13.30;99.90;;;14.49;99.81;98770.06;5062396;27;129675;-71
2022/09/13 08:42:22;;;;;;;17.73;11.82;;;13.20;99.90;;;14.46;99.82;98769.97;5079548;27;122806;-71
2022/09/13 08:44:54;;;;;;;14.98;10.93;;;13.20;99.90;;;14.52;99.29;98763.91;5081622;27;121982;-71
2022/09/13 08:47:35;;;;;;;15.18;10.90;;;13.20;99.90;;;14.35;98.64;98759.63;5064737;27;129805;-71
2022/09/13 08:50:14;;;;;;;18.45;10.80;;;13.10;99.90;;;14.28;99.48;98753.97;5080531;27;129579;-70
2022/09/13 08:53:02;;;;;;;15.15;10.63;;;13.20;99.90;;;14.22;99.10;98760.84;5080745;27;119617;-70
2022/09/13 08:55:46;;;;;;;13.85;10.32;;;13.20;99.90;;;14.36;99.15;98755.72;5065541;27;119403;-72
2022/09/13 08:58:46;;;;;;;20.83;10.63;;;13.30;99.90;;;14.33;98.99;98750.97;5080645;27;129859;-73
2022/09/13 09:01:31;;;;;;;15.68;10.23;;;13.30;99.90;;;13.95;100.00;98763.34;5080849;27;129631;-71
2022/09/13 09:04:12;;;;;;;13.05;10.10;;;13.00;99.90;;;13.77;100.00;98756.63;5080861;27;120539;-71
2022/09/13 09:06:41;;;;;;;14.93;10.80;;;13.00;99.90;;;13.82;100.00;98761.81;5065603;27;118243;-71
2022/09/13 09:09:18;;;;;;;15.77;10.90;;;13.00;99.90;;;14.01;100.00;98761.94;5078252;27;130492;-73
2022/09/13 09:11:53;;;;;;;;;;;13.10;99.90;;;13.96;100.00;98754.03;5080591;27;129504;-72
2022/09/13 09:14:27;;;;;;;12.82;10.13;;;13.20;99.90;;;14.08;100.00;98755.84;5080753;27;119545;-71
2022/09/13 09:17:00;;;;;;;15.90;10.68;;;13.20;99.90;;;14.24;98.91;98741.41;5080797;27;119422;-72
2022/09/13 09:19:34;;;;;;;13.45;10.35;;;13.30;99.90;;;14.15;98.17;98755.25;5080427;27;130925;-72
2022/09/13 09:22:12;;;;;;;16.30;12.57;;;13.20;99.90;;;14.22;98.23;98749.94;5064898;27;130265;-67
2022/09/13 09:24:45;;;;;;;15.48;11.35;;;13.10;99.90;;;14.45;97.61;98750.09;5061962;27;119563;-71
2022/09/13 09:27:18;;;;;;;16.45;11.52;;;13.30;99.90;;;14.08;98.25;98749.59;5080868;27;120460;-73
2022/09/13 09:29:49;;;;;;;17.90;12.80;;;13.10;99.90;;;14.05;99.86;98742.13;5080226;27;130021;-73
2022/09/13 09:32:43;;;;;;;18.88;12.50;;;13.00;99.90;;;13.81;100.00;98752.84;5061243;27;129610;-71
2022/09/13 09:35:27;;;;;;;20.05;13.70;;;12.80;99.90;;;13.62;100.00;98756.28;5079159;27;122340;-71
2022/09/13 09:38:33;;;;;;;22.05;14.23;;;12.70;99.90;;;13.42;100.00;98751.84;5061540;27;122161;-72
2022/09/13 09:41:07;;;;;;;18.15;12.05;;;12.60;99.90;;;13.48;100.00;98745.78;5079950;27;129992;-72
2022/09/13 09:43:48;;;;;;;18.83;12.38;;;12.70;99.90;;;13.58;100.00;98749.16;5080004;27;129367;-72
2022/09/13 09:46:19;;;;;;;16.38;11.98;;;12.80;99.90;;;13.68;100.00;98739.66;5082841;27;119435;-72
2022/09/13 09:48:55;;;;;;;15.90;11.65;;;12.80;99.90;;;13.96;100.00;98737.66;5080167;27;119448;-71
2022/09/13 09:51:27;;;;;;;14.07;11.00;;;13.00;99.90;;;14.13;99.66;98735.69;5079968;27;130508;-72
2022/09/13 09:54:05;;;;;;;13.88;10.90;;;13.10;99.90;;;14.35;98.07;98732.31;5080099;27;129902;-72
2022/09/13 09:56:35;;;;;;;16.30;11.25;;;13.30;99.90;;;14.44;96.84;98734.06;5065366;27;118328;-73
2022/09/13 09:59:24;;;;;;;15.50;10.20;;;13.30;99.90;;;14.34;96.80;98730.72;5065024;27;118740;-72
2022/09/13 10:01:57;;;;;;;14.82;9.80;;;13.20;99.90;;;14.53;96.39;98729.97;5063560;27;128994;-70
2022/09/13 10:04:26;;;;;;;13.30;10.20;;;13.40;99.90;;;14.53;95.13;98729.19;5079571;27;131004;-73
2022/09/13 10:07:18;;;;;;;13.98;9.15;;;13.40;99.90;;;14.29;94.77;98736.47;5079927;27;119842;-71
2022/09/13 10:10:00;;;;;;;13.52;9.90;;;13.20;99.90;;;14.42;96.04;98730.91;5047723;27;118421;-69
2022/09/13 10:12:32;;;;;;;14.10;9.07;;;13.30;99.90;;;14.54;94.81;98734.31;5079449;27;130777;-71
2022/09/13 10:15:16;;;;;;;12.60;9.38;;;13.40;99.90;;;14.73;92.58;98730.03;5079456;27;129078;-70
2022/09/13 10:18:01;;;;;;;13.82;9.00;;;13.40;94.30;;;14.83;91.98;98724.00;5079688;27;120276;-72
2022/09/13 10:20:31;;;;;;;14.10;8.55;;;13.50;99.40;;;14.71;90.45;98726.91;5080203;27;120103;-72
2022/09/13 10:23:21;;;;;;;13.60;8.38;;;13.30;91.10;;;14.74;91.22;98721.50;5082098;27;130480;-71
2022/09/13 10:26:08;;;;;;;14.32;8.63;;;13.50;99.30;;;14.79;91.14;98727.81;5082809;27;129695;-71